Time;durP1;ratioP1;P1;durP2;ratioP2;P2;SDS_P1;SDS_P2;PMS_P1;PMS_P2;Temp;Humidity;BMP_temperature;BMP_pressure;BME280_temperature;BME280_humidity;BME280_pressure;Samples;Min_cycle;Max_cycle;Signal;HPM_P1;HPM_P2
2020/12/02 00:00:33;;;;;;;38.97;23.60;;;1.00;99.90;;;;;;5032070;28;20525;-76
2020/12/02 00:03:07;;;;;;;34.87;22.97;;;0.90;99.90;;;;;;5032022;28;20421;-76
2020/12/02 00:05:34;;;;;;;32.40;22.30;;;0.90;99.90;;;;;;5031953;28;20183;-76
2020/12/02 00:08:13;;;;;;;32.27;22.30;;;0.90;99.90;;;;;;5031726;28;20438;-76
2020/12/02 00:10:39;;;;;;;29.87;21.43;;;0.90;99.90;;;;;;5031878;28;20452;-76
2020/12/02 00:13:09;;;;;;;40.57;24.90;;;0.80;99.90;;;;;;5031993;28;20398;-76
2020/12/02 00:15:35;;;;;;;33.90;22.37;;;0.90;99.90;;;;;;5031930;28;20171;-76
2020/12/02 00:18:00;;;;;;;34.17;22.50;;;0.80;99.90;;;;;;5031549;28;20433;-76
2020/12/02 00:20:26;;;;;;;43.53;21.77;;;0.80;99.90;;;;;;5031914;28;20882;-77
2020/12/02 00:22:52;;;;;;;34.03;22.93;;;0.80;99.90;;;;;;5031821;28;20623;-76
2020/12/02 00:25:17;;;;;;;38.40;23.00;;;0.80;99.90;;;;;;5031830;28;20250;-77
2020/12/02 00:27:43;;;;;;;36.70;25.57;;;0.80;99.90;;;;;;5030298;28;20411;-77
2020/12/02 00:30:11;;;;;;;37.97;21.93;;;0.80;99.90;;;;;;5031650;28;20667;-75
2020/12/02 00:32:40;;;;;;;35.00;23.20;;;0.80;99.90;;;;;;5031704;28;20182;-75
2020/12/02 00:35:08;;;;;;;36.87;22.70;;;0.80;99.90;;;;;;5031696;28;20485;-77
2020/12/02 00:37:33;;;;;;;37.07;23.30;;;0.80;99.90;;;;;;5031553;28;20414;-75
2020/12/02 00:39:59;;;;;;;35.37;21.83;;;0.80;99.90;;;;;;5031661;28;20509;-75
2020/12/02 00:42:25;;;;;;;37.00;23.83;;;0.80;99.90;;;;;;5032959;28;20180;-75
2020/12/02 00:44:51;;;;;;;36.23;22.90;;;0.70;99.90;;;;;;5035608;28;20172;-75
2020/12/02 00:47:23;;;;;;;40.10;23.43;;;0.80;99.90;;;;;;5041233;28;20269;-75
2020/12/02 00:49:49;;;;;;;32.20;22.20;;;0.70;99.90;;;;;;5035372;28;20457;-76
2020/12/02 00:52:15;;;;;;;38.00;22.53;;;0.70;99.90;;;;;;5035581;28;20411;-75
2020/12/02 00:54:43;;;;;;;34.57;22.30;;;0.70;99.90;;;;;;5035557;28;20791;-75
2020/12/02 00:57:10;;;;;;;39.07;24.00;;;0.70;99.90;;;;;;5035417;28;20168;-76
2020/12/02 00:59:38;;;;;;;39.57;22.50;;;0.70;99.90;;;;;;5035391;28;20956;-76
2020/12/02 01:02:16;;;;;;;38.00;21.87;;;0.70;99.90;;;;;;5035357;28;20981;-76
2020/12/02 01:04:44;;;;;;;42.67;23.80;;;0.70;99.90;;;;;;5035358;28;20891;-76
2020/12/02 01:07:11;;;;;;;38.57;23.03;;;0.70;99.90;;;;;;5035243;28;20402;-76
2020/12/02 01:09:36;;;;;;;33.87;21.47;;;0.70;99.90;;;;;;5034950;28;20508;-76
2020/12/02 01:12:03;;;;;;;35.87;24.97;;;0.70;99.90;;;;;;5035131;28;20406;-76
2020/12/02 01:14:29;;;;;;;37.67;23.60;;;0.60;99.90;;;;;;5035217;28;20205;-76
2020/12/02 01:16:57;;;;;;;33.80;23.17;;;0.60;99.90;;;;;;5034817;28;20417;-77
2020/12/02 01:19:26;;;;;;;31.70;24.27;;;0.60;99.90;;;;;;5034957;28;20552;-76
2020/12/02 01:22:00;;;;;;;38.43;23.50;;;0.60;99.90;;;;;;5034951;28;20493;-76
2020/12/02 01:24:30;;;;;;;34.47;22.03;;;0.60;99.90;;;;;;5035004;28;20437;-77
2020/12/02 01:27:18;;;;;;;35.20;24.00;;;0.60;99.90;;;;;;5034884;28;20387;-76
2020/12/02 01:29:45;;;;;;;34.80;22.83;;;0.60;99.90;;;;;;5034900;28;20449;-76
2020/12/02 01:32:11;;;;;;;37.67;25.40;;;0.60;99.90;;;;;;5034835;28;20971;-76
2020/12/02 01:34:36;;;;;;;35.07;22.37;;;0.50;99.90;;;;;;5034771;28;20409;-76
2020/12/02 01:37:05;;;;;;;37.00;22.33;;;0.50;99.90;;;;;;5034604;28;20774;-76
2020/12/02 01:39:38;;;;;;;36.53;23.53;;;0.50;99.90;;;;;;5034655;28;20186;-76
2020/12/02 01:42:04;;;;;;;32.33;20.47;;;0.50;99.90;;;;;;5034596;28;20398;-76
2020/12/02 01:44:30;;;;;;;34.63;24.10;;;0.50;99.90;;;;;;5035024;28;20406;-77
2020/12/02 01:47:05;;;;;;;42.73;24.90;;;0.50;99.90;;;;;;5034473;28;20774;-76
2020/12/02 01:49:46;;;;;;;38.10;23.77;;;0.50;99.90;;;;;;5034305;28;20228;-76
2020/12/02 01:52:34;;;;;;;36.67;23.13;;;0.50;99.90;;;;;;5033569;28;20410;-76
2020/12/02 01:55:02;;;;;;;37.27;26.73;;;0.50;99.90;;;;;;5033550;28;20931;-77
2020/12/02 01:57:35;;;;;;;39.73;23.97;;;0.40;99.90;;;;;;5034469;28;20403;-77
2020/12/02 02:00:14;;;;;;;34.80;23.03;;;0.40;99.90;;;;;;5034502;28;20406;-76
2020/12/02 02:02:59;;;;;;;37.50;23.70;;;0.40;99.90;;;;;;5032056;28;20508;-76
2020/12/02 02:05:43;;;;;;;38.50;23.47;;;0.40;99.90;;;;;;5034346;28;20489;-76
2020/12/02 02:08:09;;;;;;;39.93;27.73;;;0.40;99.90;;;;;;5034190;28;20799;-76
2020/12/02 02:10:38;;;;;;;35.73;24.90;;;0.40;99.90;;;;;;5034869;28;20489;-75
2020/12/02 02:13:35;;;;;;;40.87;24.97;;;0.30;99.90;;;;;;5037097;28;20429;-76
2020/12/02 02:16:09;;;;;;;37.60;22.90;;;0.40;99.90;;;;;;5035188;28;20412;-76
2020/12/02 02:18:35;;;;;;;40.53;24.53;;;0.40;99.90;;;;;;5033204;28;20430;-76
2020/12/02 02:21:20;;;;;;;46.50;26.67;;;0.40;99.90;;;;;;5034127;28;20746;-75
2020/12/02 02:23:46;;;;;;;40.23;25.40;;;0.40;99.90;;;;;;5028485;28;20259;-75
2020/12/02 02:26:14;;;;;;;37.67;24.70;;;0.40;99.90;;;;;;5033962;28;20457;-76
2020/12/02 02:28:50;;;;;;;37.53;24.70;;;0.40;99.90;;;;;;5033583;28;20542;-76
2020/12/02 02:31:19;;;;;;;41.50;24.10;;;0.40;99.90;;;;;;5033651;28;20484;-76
2020/12/02 02:33:47;;;;;;;32.83;23.13;;;0.40;99.90;;;;;;5033702;28;20410;-76
2020/12/02 02:36:14;;;;;;;37.70;25.57;;;0.40;99.90;;;;;;5033909;28;20417;-76
2020/12/02 02:38:40;;;;;;;39.27;25.20;;;0.40;99.90;;;;;;5033605;28;20465;-76
2020/12/02 02:41:08;;;;;;;39.20;25.23;;;0.40;99.90;;;;;;5033860;28;20403;-75
2020/12/02 02:43:34;;;;;;;38.90;24.13;;;0.40;99.90;;;;;;5033862;28;20446;-75
2020/12/02 02:45:59;;;;;;;37.07;20.27;;;0.40;99.90;;;;;;5033740;28;20440;-75
2020/12/02 02:48:25;;;;;;;41.50;24.80;;;0.40;99.90;;;;;;5033417;28;20422;-75
2020/12/02 02:50:50;;;;;;;44.53;26.20;;;0.40;99.90;;;;;;5033534;28;20195;-76
2020/12/02 02:53:20;;;;;;;39.13;28.00;;;0.30;99.90;;;;;;5033572;28;20195;-76
2020/12/02 02:55:46;;;;;;;40.70;24.63;;;0.30;99.90;;;;;;5033644;28;20163;-76
2020/12/02 02:58:12;;;;;;;33.80;24.60;;;0.30;99.90;;;;;;5033107;28;20517;-76
2020/12/02 03:00:40;;;;;;;36.90;25.93;;;0.30;99.90;;;;;;5030693;28;20505;-76
2020/12/02 03:03:09;;;;;;;43.67;25.07;;;0.30;99.90;;;;;;5032979;28;20956;-76
2020/12/02 03:05:35;;;;;;;42.93;25.87;;;0.30;99.90;;;;;;5033017;28;20434;-75
2020/12/02 03:08:05;;;;;;;35.90;23.20;;;0.30;99.90;;;;;;5032812;28;20454;-76
2020/12/02 03:10:33;;;;;;;45.23;27.40;;;0.30;99.90;;;;;;5032949;28;20241;-76
2020/12/02 03:13:03;;;;;;;39.43;24.43;;;0.20;99.90;;;;;;5032748;28;20422;-75
2020/12/02 03:15:30;;;;;;;40.33;24.40;;;0.20;99.90;;;;;;5031680;28;20462;-75
2020/12/02 03:17:55;;;;;;;34.60;23.30;;;0.20;99.90;;;;;;5032544;28;20524;-75
2020/12/02 03:20:29;;;;;;;37.37;25.10;;;0.20;99.90;;;;;;5032766;28;20500;-75
2020/12/02 03:22:55;;;;;;;39.20;25.07;;;0.20;99.90;;;;;;5032677;28;20179;-76
2020/12/02 03:25:27;;;;;;;41.50;24.40;;;0.20;99.90;;;;;;5032720;28;20814;-76
2020/12/02 03:27:53;;;;;;;42.07;22.70;;;0.20;99.90;;;;;;5032510;28;20204;-76
2020/12/02 03:30:19;;;;;;;39.50;26.67;;;0.20;99.90;;;;;;5032585;28;20453;-76
2020/12/02 03:32:45;;;;;;;47.30;26.40;;;0.20;99.90;;;;;;5032619;28;20179;-76
2020/12/02 03:35:11;;;;;;;45.17;25.13;;;0.10;99.90;;;;;;5032593;28;20238;-76
2020/12/02 03:37:36;;;;;;;37.87;24.40;;;0.10;99.90;;;;;;5032255;28;20498;-76
2020/12/02 03:40:05;;;;;;;37.10;22.80;;;0.10;99.90;;;;;;5032440;28;20781;-76
2020/12/02 03:42:31;;;;;;;39.60;27.40;;;0.10;99.90;;;;;;5032287;28;20184;-75
2020/12/02 03:44:56;;;;;;;48.60;26.97;;;0.10;99.90;;;;;;5032592;28;20476;-76
2020/12/02 03:47:22;;;;;;;37.40;25.10;;;0.10;99.90;;;;;;5032374;28;20182;-76
2020/12/02 03:49:47;;;;;;;42.30;26.53;;;0.00;99.90;;;;;;5032051;28;20278;-75
2020/12/02 03:52:13;;;;;;;40.57;24.47;;;0.00;99.90;;;;;;5032274;28;20183;-76
2020/12/02 03:54:38;;;;;;;43.10;25.87;;;0.10;99.90;;;;;;5032277;28;20195;-76
2020/12/02 03:57:04;;;;;;;52.53;27.03;;;0.00;99.90;;;;;;5032040;28;20221;-76
2020/12/02 03:59:29;;;;;;;43.10;26.87;;;0.10;99.90;;;;;;5031908;28;20628;-77
2020/12/02 04:01:55;;;;;;;37.73;25.13;;;0.10;99.90;;;;;;5031855;28;20172;-76
2020/12/02 04:04:21;;;;;;;42.03;25.47;;;0.10;99.90;;;;;;5032233;28;20227;-76
2020/12/02 04:06:47;;;;;;;42.63;25.50;;;0.10;99.90;;;;;;5032238;28;20930;-76
2020/12/02 04:09:12;;;;;;;48.07;28.03;;;0.10;99.90;;;;;;5031923;28;20434;-77
2020/12/02 04:11:38;;;;;;;44.40;27.30;;;0.10;99.90;;;;;;5032102;28;20203;-77
2020/12/02 04:14:04;;;;;;;44.50;27.10;;;0.00;99.90;;;;;;5032067;28;20179;-77
2020/12/02 04:16:29;;;;;;;43.90;28.23;;;0.00;99.90;;;;;;5031667;28;20172;-77
2020/12/02 04:18:55;;;;;;;50.63;28.93;;;0.00;99.90;;;;;;5031872;28;20464;-76
2020/12/02 04:21:24;;;;;;;51.13;26.57;;;0.00;99.90;;;;;;5032305;28;20171;-77
2020/12/02 04:23:53;;;;;;;46.03;26.20;;;0.00;99.90;;;;;;5032091;28;20294;-76
2020/12/02 04:26:19;;;;;;;41.00;28.53;;;0.00;99.90;;;;;;5031758;28;20830;-76
2020/12/02 04:28:44;;;;;;;51.50;26.97;;;0.00;99.90;;;;;;5031798;28;20453;-76
2020/12/02 04:31:10;;;;;;;44.80;28.70;;;0.00;99.90;;;;;;5031666;28;20194;-75
2020/12/02 04:33:35;;;;;;;48.00;28.10;;;0.00;99.90;;;;;;5031690;28;20534;-76
2020/12/02 04:36:01;;;;;;;46.70;28.80;;;0.10;99.90;;;;;;5031817;28;20164;-76
2020/12/02 04:38:27;;;;;;;45.67;27.27;;;0.10;99.90;;;;;;5031564;28;20660;-76
2020/12/02 04:40:52;;;;;;;50.83;31.90;;;0.10;99.90;;;;;;5032282;28;20174;-76
2020/12/02 04:43:29;;;;;;;46.03;28.00;;;0.10;99.90;;;;;;5030343;28;20172;-76
2020/12/02 04:45:56;;;;;;;54.27;29.50;;;0.10;99.90;;;;;;5031620;28;20167;-76
2020/12/02 04:48:27;;;;;;;45.83;26.67;;;0.10;99.90;;;;;;5031623;28;20422;-76
2020/12/02 04:51:01;;;;;;;48.90;26.23;;;0.10;99.90;;;;;;5031669;28;20980;-75
2020/12/02 04:53:27;;;;;;;45.33;29.07;;;0.10;99.90;;;;;;5031542;28;20407;-77
2020/12/02 04:55:56;;;;;;;47.73;30.13;;;0.10;99.90;;;;;;5031556;28;20401;-77
2020/12/02 04:58:29;;;;;;;47.73;28.90;;;0.10;99.90;;;;;;5031278;28;20183;-77
2020/12/02 05:01:14;;;;;;;47.13;27.90;;;0.10;99.90;;;;;;5031341;28;20425;-77
2020/12/02 05:03:58;;;;;;;51.20;30.17;;;0.10;99.90;;;;;;5031473;28;20808;-77
2020/12/02 05:06:48;;;;;;;45.50;25.67;;;0.10;99.90;;;;;;5031442;28;20398;-77
2020/12/02 05:09:20;;;;;;;50.50;27.03;;;0.10;99.90;;;;;;5031175;28;20457;-77
2020/12/02 05:11:56;;;;;;;43.50;26.97;;;0.10;99.90;;;;;;5031385;28;21033;-77
2020/12/02 05:14:23;;;;;;;45.77;28.33;;;0.10;99.90;;;;;;5031387;28;20401;-76
2020/12/02 05:17:01;;;;;;;50.67;28.10;;;0.10;99.90;;;;;;5031421;28;20406;-75
2020/12/02 05:19:27;;;;;;;52.93;28.93;;;0.10;99.90;;;;;;5031358;28;20422;-75
2020/12/02 05:22:03;;;;;;;43.37;26.50;;;0.10;99.90;;;;;;5031638;28;20452;-77
2020/12/02 05:24:28;;;;;;;52.77;29.17;;;0.20;99.90;;;;;;5031574;28;20194;-77
2020/12/02 05:27:02;;;;;;;46.70;27.90;;;0.20;99.90;;;;;;5031328;28;20403;-77
2020/12/02 05:29:48;;;;;;;57.07;26.27;;;0.20;99.90;;;;;;5032318;28;20190;-75
2020/12/02 05:32:28;;;;;;;43.17;28.10;;;0.10;99.90;;;;;;5035136;28;20418;-77
2020/12/02 05:34:55;;;;;;;51.80;27.90;;;0.10;99.90;;;;;;5034876;28;20428;-75
2020/12/02 05:37:48;;;;;;;44.77;27.03;;;0.10;99.90;;;;;;5034615;28;20410;-75
2020/12/02 05:40:15;;;;;;;52.60;26.73;;;0.10;99.90;;;;;;5034674;28;20461;-75
2020/12/02 05:42:47;;;;;;;48.47;26.80;;;0.10;99.90;;;;;;5035048;28;20462;-78
2020/12/02 05:45:20;;;;;;;41.63;26.20;;;0.10;99.90;;;;;;5035177;28;20403;-76
2020/12/02 05:47:50;;;;;;;42.33;27.27;;;0.10;99.90;;;;;;5034384;28;20469;-76
2020/12/02 05:50:17;;;;;;;51.60;29.37;;;0.10;99.90;;;;;;5033290;28;20472;-76
2020/12/02 05:52:48;;;;;;;43.73;26.50;;;0.10;99.90;;;;;;5034629;28;20406;-76
2020/12/02 05:55:31;;;;;;;48.87;28.43;;;0.10;99.90;;;;;;5034476;28;20432;-76
2020/12/02 05:57:59;;;;;;;47.37;29.00;;;0.10;99.90;;;;;;5034156;28;20476;-75
2020/12/02 06:00:28;;;;;;;47.20;27.40;;;0.10;99.90;;;;;;5034221;28;20822;-76
2020/12/02 06:02:55;;;;;;;45.40;28.97;;;0.10;99.90;;;;;;5034349;28;20446;-75
2020/12/02 06:05:21;;;;;;;49.90;28.60;;;0.10;99.90;;;;;;5034223;28;20767;-76
2020/12/02 06:07:49;;;;;;;47.10;27.80;;;0.10;99.90;;;;;;5034018;28;20406;-76
2020/12/02 06:10:16;;;;;;;44.97;27.17;;;0.10;99.90;;;;;;5034169;28;20187;-76
2020/12/02 06:12:43;;;;;;;47.57;26.30;;;0.20;99.90;;;;;;5034388;28;20833;-76
2020/12/02 06:15:22;;;;;;;39.70;27.57;;;0.10;99.90;;;;;;5034204;28;20445;-76
2020/12/02 06:17:47;;;;;;;43.77;27.07;;;0.20;99.90;;;;;;5033642;28;20460;-76
2020/12/02 06:20:13;;;;;;;43.10;27.57;;;0.20;99.90;;;;;;5033943;28;20419;-75
2020/12/02 06:22:52;;;;;;;46.90;27.73;;;0.20;99.90;;;;;;5033984;28;20814;-76
2020/12/02 06:25:41;;;;;;;47.80;27.97;;;0.20;99.90;;;;;;5033687;28;20168;-76
2020/12/02 06:28:09;;;;;;;50.27;29.57;;;0.20;99.90;;;;;;5033434;28;20458;-75
2020/12/02 06:30:35;;;;;;;52.93;31.33;;;0.10;99.90;;;;;;5033716;28;21009;-76
2020/12/02 06:33:14;;;;;;;58.93;28.50;;;0.10;99.90;;;;;;5033769;28;20402;-76
2020/12/02 06:35:40;;;;;;;58.23;32.10;;;0.10;99.90;;;;;;5034154;28;20201;-76
2020/12/02 06:38:21;;;;;;;51.60;30.67;;;0.10;99.90;;;;;;5033250;28;20430;-75
2020/12/02 06:40:59;;;;;;;45.23;27.97;;;0.10;99.90;;;;;;5033277;28;20246;-75
2020/12/02 06:43:29;;;;;;;47.90;30.33;;;0.10;99.90;;;;;;5033545;28;20811;-76
2020/12/02 06:46:01;;;;;;;54.63;29.70;;;0.10;99.90;;;;;;5033375;28;20458;-75
2020/12/02 06:48:37;;;;;;;47.20;28.67;;;0.10;99.90;;;;;;5033215;28;20426;-76
2020/12/02 06:51:11;;;;;;;52.10;28.07;;;0.10;99.90;;;;;;5033369;28;20458;-76
2020/12/02 06:53:37;;;;;;;50.73;28.80;;;0.10;99.90;;;;;;5034340;28;20398;-76
2020/12/02 06:56:05;;;;;;;56.33;31.93;;;0.10;99.90;;;;;;5034614;28;20513;-76
2020/12/02 06:58:31;;;;;;;48.70;30.50;;;0.10;99.90;;;;;;5034048;28;20191;-76
2020/12/02 07:01:03;;;;;;;51.60;31.27;;;0.10;99.90;;;;;;5033698;28;20445;-76
2020/12/02 07:03:42;;;;;;;51.23;34.60;;;0.10;99.90;;;;;;5033302;28;20422;-78
2020/12/02 07:06:29;;;;;;;57.67;34.37;;;0.10;99.90;;;;;;5033653;28;20405;-77
2020/12/02 07:09:10;;;;;;;51.07;33.90;;;0.10;99.90;;;;;;5032716;28;21004;-76
2020/12/02 07:11:37;;;;;;;51.77;31.57;;;0.10;99.90;;;;;;5032789;28;20461;-76
2020/12/02 07:14:26;;;;;;;51.77;30.60;;;0.10;99.90;;;;;;5032619;28;20402;-76
2020/12/02 07:17:00;;;;;;;51.13;33.07;;;0.10;99.90;;;;;;5032693;28;20481;-76
2020/12/02 07:19:31;;;;;;;51.83;32.83;;;0.10;99.90;;;;;;5032576;28;20501;-76
2020/12/02 07:22:18;;;;;;;58.57;34.73;;;0.10;99.90;;;;;;5032597;28;20407;-76
2020/12/02 07:24:47;;;;;;;53.93;33.97;;;0.20;99.90;;;;;;5032377;28;20857;-77
2020/12/02 07:27:13;;;;;;;49.60;31.40;;;0.20;99.90;;;;;;5032667;28;20403;-76
2020/12/02 07:29:38;;;;;;;53.50;31.73;;;0.20;99.90;;;;;;5032552;28;20927;-76
2020/12/02 07:32:12;;;;;;;57.03;32.20;;;0.30;99.90;;;;;;5033100;28;20402;-76
2020/12/02 07:34:38;;;;;;;60.50;31.20;;;0.30;99.90;;;;;;5032623;28;20164;-76
2020/12/02 07:37:11;;;;;;;61.20;32.30;;;0.30;99.90;;;;;;5032279;28;20413;-76
2020/12/02 07:39:51;;;;;;;59.47;34.90;;;0.30;99.90;;;;;;5032465;28;20818;-75
2020/12/02 07:42:29;;;;;;;58.67;32.37;;;0.40;99.90;;;;;;5032550;28;20460;-75
2020/12/02 07:45:21;;;;;;;53.57;32.77;;;0.40;99.90;;;;;;5032403;28;20405;-76
2020/12/02 07:47:58;;;;;;;59.13;31.10;;;0.50;99.90;;;;;;5032213;28;20748;-75
2020/12/02 07:50:32;;;;;;;49.47;32.03;;;0.50;99.90;;;;;;5032192;28;20453;-76
2020/12/02 07:53:15;;;;;;;57.07;32.53;;;0.60;99.90;;;;;;5031373;28;20449;-76
2020/12/02 07:55:49;;;;;;;50.43;29.50;;;0.60;99.90;;;;;;5032269;28;20402;-76
2020/12/02 07:58:27;;;;;;;59.80;33.93;;;0.60;99.90;;;;;;5032000;28;20417;-76
2020/12/02 08:00:55;;;;;;;52.70;33.53;;;0.60;99.90;;;;;;5032070;28;20417;-76
2020/12/02 08:03:38;;;;;;;55.87;31.13;;;0.50;99.90;;;;;;5031968;28;20410;-77
2020/12/02 08:06:09;;;;;;;53.50;30.00;;;0.60;99.90;;;;;;5031936;28;20413;-76
2020/12/02 08:08:35;;;;;;;57.87;32.57;;;0.70;99.90;;;;;;5031691;28;20488;-76
2020/12/02 08:11:14;;;;;;;46.57;33.07;;;0.80;99.90;;;;;;5031864;28;20950;-76
2020/12/02 08:13:52;;;;;;;54.63;32.90;;;0.80;99.90;;;;;;5031952;28;20199;-76
2020/12/02 08:16:41;;;;;;;61.27;33.87;;;0.90;99.90;;;;;;5031876;28;20402;-76
2020/12/02 08:19:10;;;;;;;53.40;31.07;;;0.90;99.90;;;;;;5030599;28;20429;-76
2020/12/02 08:21:37;;;;;;;63.43;34.07;;;0.80;99.90;;;;;;5032137;28;20413;-76
2020/12/02 08:24:06;;;;;;;54.30;32.07;;;0.90;99.90;;;;;;5030378;28;20476;-75
2020/12/02 08:26:32;;;;;;;52.53;30.60;;;0.90;99.90;;;;;;5031762;28;20406;-76
2020/12/02 08:29:05;;;;;;;52.43;33.67;;;0.90;99.90;;;;;;5031724;28;20484;-75
2020/12/02 08:31:32;;;;;;;56.00;31.27;;;0.90;99.90;;;;;;5032112;28;20207;-75
2020/12/02 08:34:30;;;;;;;59.27;33.90;;;1.00;99.90;;;;;;5031755;28;20464;-75
2020/12/02 08:37:14;;;;;;;49.10;30.57;;;1.10;99.90;;;;;;5018987;28;20415;-76
2020/12/02 08:39:43;;;;;;;53.67;31.80;;;1.10;99.90;;;;;;5031525;28;20934;-76
2020/12/02 08:42:11;;;;;;;58.50;35.90;;;1.20;99.90;;;;;;5031597;28;20890;-76
2020/12/02 08:44:36;;;;;;;57.23;32.40;;;1.30;99.90;;;;;;5030411;28;20420;-77
2020/12/02 08:47:18;;;;;;;50.57;30.73;;;1.30;99.90;;;;;;5031097;28;20498;-77
2020/12/02 08:49:44;;;;;;;52.57;33.80;;;1.40;99.90;;;;;;5031490;28;20237;-77
2020/12/02 08:52:09;;;;;;;53.03;30.80;;;1.30;99.90;;;;;;5031602;28;20442;-77
2020/12/02 08:54:35;;;;;;;60.53;31.37;;;1.20;99.90;;;;;;5031663;28;20624;-75
2020/12/02 08:57:04;;;;;;;61.60;31.73;;;1.30;99.90;;;;;;5030317;28;20195;-77
2020/12/02 08:59:29;;;;;;;54.53;31.43;;;1.40;99.90;;;;;;5030341;28;20422;-77
2020/12/02 09:02:00;;;;;;;55.80;32.90;;;1.40;99.90;;;;;;5032214;28;20425;-74
2020/12/02 09:04:25;;;;;;;51.53;32.87;;;1.50;99.90;;;;;;5035367;28;20211;-76
2020/12/02 09:06:51;;;;;;;50.17;30.20;;;1.50;99.90;;;;;;5035516;28;20838;-76
2020/12/02 09:09:16;;;;;;;48.03;31.17;;;1.50;99.90;;;;;;5032161;28;20211;-76
2020/12/02 09:11:42;;;;;;;52.60;30.70;;;1.50;99.90;;;;;;5034874;28;20261;-77
2020/12/02 09:14:07;;;;;;;59.67;31.50;;;1.60;99.90;;;;;;5035222;28;20203;-77
2020/12/02 09:16:35;;;;;;;55.00;32.80;;;1.80;99.90;;;;;;5035361;28;20167;-77
2020/12/02 09:19:02;;;;;;;51.70;31.20;;;1.90;99.90;;;;;;5050571;28;20283;-76
2020/12/02 09:21:28;;;;;;;46.10;31.50;;;1.90;99.90;;;;;;5036124;28;20410;-78
2020/12/02 09:23:55;;;;;;;54.17;33.30;;;1.90;99.90;;;;;;5035906;28;20779;-77
2020/12/02 09:26:24;;;;;;;43.97;29.73;;;1.90;99.90;;;;;;5019235;28;20419;-77
2020/12/02 09:28:50;;;;;;;51.70;30.97;;;1.80;99.90;;;;;;5015383;28;20427;-77
2020/12/02 09:31:17;;;;;;;53.90;32.83;;;1.90;99.90;;;;;;5015160;28;20451;-78
2020/12/02 09:33:43;;;;;;;56.03;35.17;;;1.80;99.90;;;;;;5015178;28;20414;-77
2020/12/02 09:36:09;;;;;;;46.50;31.17;;;1.90;99.90;;;;;;5015075;28;20403;-78
2020/12/02 09:38:34;;;;;;;48.03;30.20;;;1.90;99.90;;;;;;5015207;28;20267;-79
2020/12/02 09:41:26;;;;;;;50.47;31.77;;;1.90;99.90;;;;;;5014218;28;20450;-77
2020/12/02 09:44:09;;;;;;;51.73;32.90;;;1.90;99.90;;;;;;5034719;28;20164;-77
2020/12/02 09:46:35;;;;;;;57.93;33.27;;;2.00;99.90;;;;;;5033425;28;20896;-78
2020/12/02 09:49:02;;;;;;;53.90;32.80;;;1.90;99.90;;;;;;5017280;28;20423;-78
2020/12/02 09:51:31;;;;;;;56.50;33.00;;;2.00;99.90;;;;;;5017126;28;20442;-78
2020/12/02 09:53:57;;;;;;;60.33;33.33;;;2.00;99.90;;;;;;5015322;28;20419;-77
2020/12/02 09:56:27;;;;;;;52.93;34.83;;;2.10;99.90;;;;;;5015901;28;20399;-78
2020/12/02 09:59:06;;;;;;;63.40;34.03;;;2.20;99.90;;;;;;5012610;28;20467;-77
2020/12/02 10:01:49;;;;;;;57.83;34.60;;;2.10;99.90;;;;;;5017414;28;20498;-78
2020/12/02 10:04:34;;;;;;;46.57;31.30;;;2.10;99.90;;;;;;5015079;28;20895;-75
2020/12/02 10:07:26;;;;;;;57.57;34.73;;;2.20;99.90;;;;;;5013286;28;20760;-76
2020/12/02 10:10:06;;;;;;;55.17;33.57;;;2.20;99.90;;;;;;5021256;28;20962;-75
2020/12/02 10:12:46;;;;;;;61.17;35.63;;;2.10;99.90;;;;;;5034253;28;20410;-78
2020/12/02 10:15:32;;;;;;;61.83;33.77;;;2.10;99.90;;;;;;5034437;28;20398;-78
2020/12/02 10:18:19;;;;;;;55.50;34.13;;;2.10;99.90;;;;;;5034274;28;20942;-76
2020/12/02 10:20:47;;;;;;;54.17;33.87;;;2.20;99.90;;;;;;5014358;28;20406;-76
2020/12/02 10:23:26;;;;;;;55.50;34.40;;;2.30;99.90;;;;;;5014407;28;20791;-76
2020/12/02 10:26:29;;;;;;;57.87;35.77;;;2.20;99.90;;;;;;5014331;28;20989;-77
2020/12/02 10:28:55;;;;;;;51.70;33.47;;;2.20;99.90;;;;;;5014341;28;20426;-76
2020/12/02 10:31:44;;;;;;;54.70;34.23;;;2.40;99.90;;;;;;5014211;28;20443;-76
2020/12/02 10:34:21;;;;;;;51.73;31.63;;;2.20;99.90;;;;;;5014332;28;20391;-76
2020/12/02 10:36:54;;;;;;;53.30;33.93;;;2.30;99.90;;;;;;5014060;28;20565;-76
2020/12/02 10:39:26;;;;;;;49.50;30.40;;;2.20;99.90;;;;;;5014674;28;20936;-76
2020/12/02 10:42:11;;;;;;;56.50;32.70;;;2.20;99.90;;;;;;5014023;28;20802;-77
2020/12/02 10:45:03;;;;;;;50.80;33.93;;;2.30;99.90;;;;;;5014049;28;20418;-77
2020/12/02 10:47:55;;;;;;;59.30;35.47;;;2.20;99.90;;;;;;5021861;28;20469;-77
2020/12/02 10:50:25;;;;;;;44.83;31.10;;;2.10;99.90;;;;;;5034374;28;20445;-77
2020/12/02 10:52:54;;;;;;;54.60;33.07;;;2.20;99.90;;;;;;5034021;28;20435;-77
2020/12/02 10:55:23;;;;;;;49.67;32.37;;;2.20;99.90;;;;;;5034098;28;20406;-77
2020/12/02 10:57:58;;;;;;;56.93;33.30;;;2.20;99.90;;;;;;5033901;28;20845;-77
2020/12/02 11:00:23;;;;;;;51.47;32.10;;;2.40;99.90;;;;;;5034147;28;20409;-77
2020/12/02 11:03:06;;;;;;;50.73;31.67;;;2.30;99.90;;;;;;5033681;28;20485;-77
2020/12/02 11:05:31;;;;;;;53.93;32.90;;;2.40;99.90;;;;;;5033951;28;20658;-76
2020/12/02 11:08:23;;;;;;;50.97;31.47;;;2.50;99.90;;;;;;5033433;28;20468;-77
2020/12/02 11:11:10;;;;;;;61.47;33.30;;;2.70;99.90;;;;;;5033424;28;20203;-76
2020/12/02 11:14:00;;;;;;;48.40;32.60;;;2.70;99.90;;;;;;5033610;28;20403;-77
2020/12/02 11:16:36;;;;;;;51.80;33.40;;;2.70;99.90;;;;;;5033300;28;20417;-76
2020/12/02 11:19:07;;;;;;;47.77;31.60;;;2.70;99.90;;;;;;5032811;28;20418;-76
2020/12/02 11:21:32;;;;;;;57.67;31.97;;;2.70;99.90;;;;;;5032998;28;20383;-76
2020/12/02 11:24:28;;;;;;;49.77;31.77;;;2.70;99.90;;;;;;5032930;28;20968;-76
2020/12/02 11:26:54;;;;;;;47.17;30.10;;;2.80;99.90;;;;;;5033004;28;20176;-76
2020/12/02 11:29:20;;;;;;;47.83;28.40;;;2.80;99.90;;;;;;5031405;28;20438;-76
2020/12/02 11:31:57;;;;;;;50.67;29.23;;;2.90;99.90;;;;;;5032685;28;20545;-76
2020/12/02 11:34:29;;;;;;;49.87;32.07;;;3.00;99.90;;;;;;5033573;28;20409;-77
2020/12/02 11:37:09;;;;;;;50.30;32.00;;;3.00;99.90;;;;;;5033276;28;20464;-75
2020/12/02 11:39:50;;;;;;;47.23;29.70;;;3.00;99.90;;;;;;5032649;28;20442;-75
2020/12/02 11:42:31;;;;;;;48.13;30.03;;;2.90;99.90;;;;;;5035870;28;20406;-76
2020/12/02 11:45:11;;;;;;;45.27;28.70;;;3.10;99.90;;;;;;5035944;28;20601;-75
2020/12/02 11:48:05;;;;;;;49.47;30.23;;;3.10;99.90;;;;;;5033409;28;20413;-76
2020/12/02 11:50:52;;;;;;;44.03;27.70;;;3.10;99.90;;;;;;5024657;28;20454;-76
2020/12/02 11:53:46;;;;;;;44.03;27.40;;;3.00;99.90;;;;;;5032553;28;20397;-75
2020/12/02 11:56:36;;;;;;;42.40;25.33;;;2.90;99.90;;;;;;5032348;28;20393;-77
2020/12/02 11:59:06;;;;;;;45.07;27.00;;;3.00;99.90;;;;;;5032822;28;20430;-76
2020/12/02 12:01:53;;;;;;;45.33;28.60;;;3.10;99.90;;;;;;5032528;28;20401;-75
2020/12/02 12:04:34;;;;;;;44.10;28.10;;;3.10;99.90;;;;;;5032363;28;20759;-76
2020/12/02 12:07:19;;;;;;;43.13;27.50;;;3.20;99.90;;;;;;5031515;28;20429;-76
2020/12/02 12:09:48;;;;;;;35.50;26.37;;;3.20;99.90;;;;;;5031535;28;20449;-75
2020/12/02 12:12:46;;;;;;;45.40;27.10;;;3.10;99.90;;;;;;5032152;28;20410;-71
2020/12/02 12:15:23;;;;;;;35.27;24.47;;;3.20;99.90;;;;;;5032422;28;20960;-76
2020/12/02 12:17:52;;;;;;;41.60;26.10;;;3.20;99.90;;;;;;5032087;28;20475;-77
2020/12/02 12:20:27;;;;;;;36.73;26.67;;;3.10;99.90;;;;;;5032066;28;20902;-76
2020/12/02 12:23:06;;;;;;;37.17;25.37;;;3.20;99.90;;;;;;5031813;28;20931;-76
2020/12/02 12:25:34;;;;;;;35.40;24.17;;;3.10;99.90;;;;;;5031889;28;20434;-76
2020/12/02 12:28:02;;;;;;;39.07;26.00;;;3.10;99.90;;;;;;5031576;28;20473;-77
2020/12/02 12:30:27;;;;;;;39.30;25.00;;;3.00;99.90;;;;;;5031734;28;20460;-77
2020/12/02 12:33:15;;;;;;;39.70;26.57;;;3.00;99.90;;;;;;5030440;28;20415;-77
2020/12/02 12:35:49;;;;;;;40.80;24.40;;;3.00;99.90;;;;;;5031892;28;20538;-76
2020/12/02 12:38:23;;;;;;;38.33;24.73;;;3.10;99.90;;;;;;5032623;28;20434;-76
2020/12/02 12:41:12;;;;;;;45.37;26.97;;;3.10;99.90;;;;;;5035962;28;20402;-76
2020/12/02 12:43:54;;;;;;;39.33;26.23;;;3.10;99.90;;;;;;5024852;28;20454;-77
2020/12/02 12:46:28;;;;;;;34.53;23.77;;;3.00;99.90;;;;;;5035849;28;20402;-76
2020/12/02 12:48:56;;;;;;;44.73;24.90;;;3.10;99.90;;;;;;5036608;28;20441;-76
2020/12/02 12:51:21;;;;;;;41.80;26.00;;;3.10;99.90;;;;;;5035739;28;20453;-75
2020/12/02 12:53:49;;;;;;;44.53;26.10;;;3.20;99.90;;;;;;5035513;28;20418;-76
2020/12/02 12:56:16;;;;;;;48.13;24.70;;;3.20;99.90;;;;;;5035564;28;20160;-76
2020/12/02 12:58:41;;;;;;;41.80;27.37;;;3.20;99.90;;;;;;5035477;28;20418;-76
2020/12/02 13:01:09;;;;;;;34.17;23.37;;;3.10;99.90;;;;;;5035292;28;20406;-76